Time;durP1;ratioP1;P1;durP2;ratioP2;P2;SDS_P1;SDS_P2;PMS_P1;PMS_P2;Temp;Humidity;BMP_temperature;BMP_pressure;BME280_temperature;BME280_humidity;BME280_pressure;Samples;Min_cycle;Max_cycle;Signal;HPM_P1;HPM_P2
2023/05/10 00:00:15;;;;;;;;;;;;;;;20.08;64.38;100831.03;4938344;28;20391;-82
2023/05/10 00:02:43;;;;;;;;;;;;;;;20.14;65.74;100832.94;4948420;28;19922;-81
2023/05/10 00:05:10;;;;;;;;;;;;;;;19.98;65.52;100825.13;4939229;28;20204;-81
2023/05/10 00:07:37;;;;;;;;;;;;;;;19.81;66.21;100825.38;4917596;28;19929;-82
2023/05/10 00:10:06;;;;;;;;;;;;;;;19.92;66.63;100821.34;4939894;28;19930;-81
2023/05/10 00:12:35;;;;;;;;;;;;;;;20.05;66.23;100816.09;4947513;28;20637;-81
2023/05/10 00:15:05;;;;;;;;;;;;;;;19.93;66.54;100816.78;4949470;28;19925;-81
2023/05/10 00:17:32;;;;;;;;;;;;;;;20.10;65.76;100811.94;4944823;28;19921;-80
2023/05/10 00:20:00;;;;;;;;;;;;;;;19.93;66.04;100809.53;4943159;28;20012;-82
2023/05/10 00:22:32;;;;;;;;;;;;;;;20.16;65.77;100806.63;4945709;28;20182;-79
2023/05/10 00:25:02;;;;;;;;;;;;;;;19.94;66.37;100800.44;4938836;28;19937;-82
2023/05/10 00:27:36;;;;;;;;;;;;;;;19.96;66.64;100801.06;4941103;28;20600;-82
2023/05/10 00:30:04;;;;;;;;;;;;;;;19.97;66.88;100797.34;4952682;28;19977;-81
2023/05/10 00:32:31;;;;;;;;;;;;;;;19.95;66.63;100793.16;4933967;28;20190;-81
2023/05/10 00:35:05;;;;;;;;;;;;;;;19.90;65.58;100793.75;4929720;28;20182;-83
2023/05/10 00:37:37;;;;;;;;;;;;;;;19.79;67.26;100787.03;4949097;28;20252;-80
2023/05/10 00:40:05;;;;;;;;;;;;;;;19.76;66.71;100784.72;4946770;28;20013;-81
2023/05/10 00:42:36;;;;;;;;;;;;;;;19.79;67.69;100784.34;4955959;28;20621;-82
2023/05/10 00:45:02;;;;;;;;;;;;;;;19.74;67.47;100780.56;4936488;28;19925;-81
2023/05/10 00:47:32;;;;;;;;;;;;;;;19.70;67.59;100784.66;4925600;28;19921;-83
2023/05/10 00:50:05;;;;;;;;;;;;;;;19.81;68.12;100786.84;4941599;28;19921;-82
2023/05/10 00:52:41;;;;;;;;;;;;;;;19.60;68.19;100782.25;4940459;28;19925;-82
2023/05/10 00:55:21;;;;;;;;;;;;;;;19.67;68.46;100782.31;4954568;28;20204;-82
2023/05/10 00:57:54;;;;;;;;;;;;;;;19.92;67.71;100778.22;4944164;28;19925;-83
2023/05/10 01:00:23;;;;;;;;;;;;;;;19.75;69.66;100766.88;4954785;28;19932;-82
2023/05/10 01:02:53;;;;;;;;;;;;;;;19.79;68.27;100776.25;4966712;28;19996;-83
2023/05/10 01:05:27;;;;;;;;;;;;;;;19.88;67.79;100770.72;4954082;28;19964;-81
2023/05/10 01:07:59;;;;;;;;;;;;;;;19.72;68.40;100767.28;4936138;28;19922;-81
2023/05/10 01:10:29;;;;;;;;;;;;;;;19.71;68.62;100760.22;4952177;28;20020;-82
2023/05/10 01:12:56;;;;;;;;;;;;;;;19.83;68.00;100765.91;4941556;28;20347;-81
2023/05/10 01:15:24;;;;;;;;;;;;;;;19.74;68.27;100764.41;4944298;28;19933;-82
2023/05/10 01:17:51;;;;;;;;;;;;;;;19.96;67.90;100757.13;4939339;28;20372;-81
2023/05/10 01:20:25;;;;;;;;;;;;;;;19.92;67.22;100769.31;4931590;28;19930;-80
2023/05/10 01:23:23;;;;;;;;;;;;;;;19.70;67.57;100720.84;4941947;28;19929;-81
2023/05/10 01:26:07;;;;;;;;;;;;;;;19.77;68.33;100764.00;4919055;28;20115;-81
2023/05/10 01:28:50;;;;;;;;;;;;;;;19.74;68.14;100759.84;4932530;28;20143;-80
2023/05/10 01:31:36;;;;;;;;;;;;;;;19.36;68.43;100703.50;4930346;28;19952;-81
2023/05/10 01:34:21;;;;;;;;;;;;;;;19.93;67.90;100763.75;4925112;28;20332;-82
2023/05/10 01:37:04;;;;;;;;;;;;;;;20.03;67.57;100755.31;4915299;28;20006;-82
2023/05/10 01:39:51;;;;;;;;;;;;;;;19.59;67.82;100707.88;4930351;28;20387;-82
2023/05/10 01:42:27;;;;;;;;;;;;;;;19.98;68.06;100760.47;4919110;28;19921;-81
2023/05/10 01:45:09;;;;;;;;;;;;;;;19.93;67.46;100754.81;4931845;28;20414;-82
2023/05/10 01:47:43;;;;;;;;;;;;;;;20.24;66.78;100758.00;4925163;28;20176;-81
2023/05/10 01:50:26;;;;;;;;;;;;;;;19.91;67.70;100757.72;4928413;28;19925;-79
2023/05/10 01:53:04;;;;;;;;;;;;;;;19.72;68.31;100755.66;4897733;28;20324;-82
2023/05/10 01:55:49;;;;;;;;;;;;;;;19.39;68.39;100704.97;4884075;28;19945;-82
2023/05/10 01:58:35;;;;;;;;;;;;;;;19.81;68.24;100760.72;4900929;28;19921;-81
2023/05/10 02:01:16;;;;;;;;;;;;;;;19.80;67.74;100758.22;4890600;28;20360;-82
2023/05/10 02:03:58;;;;;;;;;;;;;;;19.89;68.03;100761.63;4924968;28;20303;-81
2023/05/10 02:06:28;;;;;;;;;;;;;;;19.87;67.85;100758.28;4948788;28;20021;-82
2023/05/10 02:08:57;;;;;;;;;;;;;;;20.04;67.10;100765.88;4958924;28;19922;-80
2023/05/10 02:11:28;;;;;;;;;;;;;;;19.85;67.78;100762.03;4962796;28;20375;-80
2023/05/10 02:13:55;;;;;;;;;;;;;;;19.69;67.55;100759.59;4949412;28;19980;-82
2023/05/10 02:16:23;;;;;;;;;;;;;;;19.80;67.82;100759.03;4951116;28;20683;-81
2023/05/10 02:18:52;;;;;;;;;;;;;;;19.62;68.18;100766.72;4950818;28;20231;-80
2023/05/10 02:21:23;;;;;;;;;;;;;;;19.15;67.95;100669.34;4946874;28;20000;-80
2023/05/10 02:23:54;;;;;;;;;;;;;;;19.89;67.51;100767.00;4946806;28;20312;-80
2023/05/10 02:26:24;;;;;;;;;;;;;;;19.72;67.60;100767.28;4948137;28;20195;-81
2023/05/10 02:28:52;;;;;;;;;;;;;;;19.79;67.61;100770.88;4942767;28;20296;-79
2023/05/10 02:31:19;;;;;;;;;;;;;;;19.81;67.09;100768.00;4961800;28;19922;-80
2023/05/10 02:33:48;;;;;;;;;;;;;;;19.67;67.33;100769.69;4954968;28;20010;-80
2023/05/10 02:36:21;;;;;;;;;;;;;;;19.67;67.79;100766.16;4965535;28;20133;-79
2023/05/10 02:38:48;;;;;;;;;;;;;;;19.85;67.73;100767.41;4949285;28;19921;-81
2023/05/10 02:41:17;;;;;;;;;;;;;;;19.45;66.87;100706.91;4954997;28;19925;-81
2023/05/10 02:43:47;;;;;;;;;;;;;;;19.76;67.29;100757.78;4967400;28;19925;-79
2023/05/10 02:46:13;;;;;;;;;;;;;;;19.69;67.47;100756.06;4932522;28;19922;-80
2023/05/10 02:48:41;;;;;;;;;;;;;;;19.70;67.57;100755.84;4951814;28;19929;-79
2023/05/10 02:51:17;;;;;;;;;;;;;;;19.64;67.76;100762.00;4918226;28;20238;-81
2023/05/10 02:53:45;;;;;;;;;;;;;;;19.66;67.54;100762.63;4912928;28;20367;-80
2023/05/10 02:56:23;;;;;;;;;;;;;;;19.49;67.92;100755.81;4933068;28;19926;-81
2023/05/10 02:58:50;;;;;;;;;;;;;;;19.51;68.27;100754.59;4934849;28;20324;-81
2023/05/10 03:01:16;;;;;;;;;;;;;;;19.77;67.84;100756.75;4933330;28;20244;-80
2023/05/10 03:03:44;;;;;;;;;;;;;;;19.59;67.32;100761.72;4922364;28;20017;-82
2023/05/10 03:06:10;;;;;;;;;;;;;;;19.55;68.12;100758.56;4939698;28;20321;-79
2023/05/10 03:08:40;;;;;;;;;;;;;;;19.53;67.87;100755.22;4951738;28;19922;-82
2023/05/10 03:11:13;;;;;;;;;;;;;;;19.38;68.28;100757.97;4960255;28;20315;-81
2023/05/10 03:13:48;;;;;;;;;;;;;;;19.25;68.92;100755.16;4924523;28;19929;-83
2023/05/10 03:16:16;;;;;;;;;;;;;;;19.32;68.47;100764.13;4948445;28;19925;-81
2023/05/10 03:19:15;;;;;;;;;;;;;;;19.27;68.78;100755.78;4930236;28;20307;-81
2023/05/10 03:21:44;;;;;;;;;;;;;;;19.25;68.64;100748.91;4890803;28;20125;-81
2023/05/10 03:24:15;;;;;;;;;;;;;;;19.41;69.05;100743.31;4935320;28;20118;-83
2023/05/10 03:26:50;;;;;;;;;;;;;;;19.06;68.82;100692.00;4921144;28;20380;-82
2023/05/10 03:29:19;;;;;;;;;;;;;;;18.92;69.38;100696.41;4928138;28;19922;-82
2023/05/10 03:31:45;;;;;;;;;;;;;;;19.15;68.44;100744.69;4927147;28;20226;-81
2023/05/10 03:34:12;;;;;;;;;;;;;;;19.24;70.07;100742.72;4927519;28;20294;-82
2023/05/10 03:36:39;;;;;;;;;;;;;;;19.10;69.78;100751.66;4941072;28;19922;-80
2023/05/10 03:39:06;;;;;;;;;;;;;;;19.08;70.15;100743.78;4954566;28;20398;-82
2023/05/10 03:41:35;;;;;;;;;;;;;;;19.08;70.35;100748.31;4943395;28;20147;-83
2023/05/10 03:44:07;;;;;;;;;;;;;;;19.05;70.05;100748.69;4951383;28;20627;-83
2023/05/10 03:46:41;;;;;;;;;;;;;;;19.05;69.39;100748.69;4941039;28;20028;-81
2023/05/10 03:49:08;;;;;;;;;;;;;;;18.96;69.75;100754.19;4941212;28;19993;-82
2023/05/10 03:51:35;;;;;;;;;;;;;;;19.10;70.16;100751.66;4928187;28;19929;-82
2023/05/10 03:54:02;;;;;;;;;;;;;;;18.88;70.34;100754.28;4907155;28;19930;-81
2023/05/10 03:56:29;;;;;;;;;;;;;;;18.97;70.41;100750.47;4903819;28;20152;-80
2023/05/10 03:58:59;;;;;;;;;;;;;;;19.00;71.10;100744.72;4926005;28;20000;-80
2023/05/10 04:01:25;;;;;;;;;;;;;;;19.16;70.08;100748.22;4918688;28;19922;-82
2023/05/10 04:03:52;;;;;;;;;;;;;;;19.10;70.13;100747.13;4895188;28;20190;-81
2023/05/10 04:06:19;;;;;;;;;;;;;;;19.32;69.72;100756.06;4895790;28;19928;-81
2023/05/10 04:08:47;;;;;;;;;;;;;;;19.18;69.36;100744.31;4943703;28;19925;-83
2023/05/10 04:11:15;;;;;;;;;;;;;;;19.13;69.61;100744.03;4923722;28;20058;-81
2023/05/10 04:13:42;;;;;;;;;;;;;;;19.23;69.80;100743.75;4933285;28;20398;-80
2023/05/10 04:16:09;;;;;;;;;;;;;;;19.25;69.45;100743.53;4941968;28;20088;-81
2023/05/10 04:18:36;;;;;;;;;;;;;;;19.23;69.94;100741.06;4931055;28;19995;-81
2023/05/10 04:21:03;;;;;;;;;;;;;;;19.08;69.76;100746.47;4909418;28;20342;-80
2023/05/10 04:23:32;;;;;;;;;;;;;;;19.17;69.95;100739.09;4907789;28;19922;-83
2023/05/10 04:26:07;;;;;;;;;;;;;;;19.24;70.09;100747.25;4919724;28;19930;-82
2023/05/10 04:28:33;;;;;;;;;;;;;;;19.00;69.00;100744.72;4919560;28;20849;-81
2023/05/10 04:31:10;;;;;;;;;;;;;;;18.83;69.83;100740.56;4945178;28;20195;-81
2023/05/10 04:33:36;;;;;;;;;;;;;;;18.71;70.95;100737.47;4951969;28;20028;-81
2023/05/10 04:36:06;;;;;;;;;;;;;;;18.71;70.74;100742.00;4963424;28;19922;-81
2023/05/10 04:38:32;;;;;;;;;;;;;;;18.93;71.21;100741.13;4950091;28;19922;-81
2023/05/10 04:41:06;;;;;;;;;;;;;;;19.03;68.86;100742.66;4957893;28;19934;-81
2023/05/10 04:43:32;;;;;;;;;;;;;;;19.06;69.51;100748.50;4970002;28;20006;-81
2023/05/10 04:45:59;;;;;;;;;;;;;;;18.88;69.56;100743.50;4956983;28;20375;-81
2023/05/10 04:48:27;;;;;;;;;;;;;;;18.86;70.53;100747.41;4978138;28;20335;-81
2023/05/10 04:50:53;;;;;;;;;;;;;;;18.69;69.11;100738.69;4950519;28;20071;-81
2023/05/10 04:53:20;;;;;;;;;;;;;;;18.73;71.08;100739.97;4943093;28;20008;-81
2023/05/10 04:55:47;;;;;;;;;;;;;;;18.91;70.38;100736.91;4966411;28;19921;-82
2023/05/10 04:58:14;;;;;;;;;;;;;;;18.75;70.56;100740.63;4969850;28;19928;-82
2023/05/10 05:00:41;;;;;;;;;;;;;;;18.67;70.70;100740.75;4984436;28;20323;-81
2023/05/10 05:03:08;;;;;;;;;;;;;;;18.77;71.18;100741.31;4981743;28;20122;-81
2023/05/10 05:05:34;;;;;;;;;;;;;;;19.09;70.23;100742.75;4969132;28;20228;-82
2023/05/10 05:08:01;;;;;;;;;;;;;;;18.84;70.09;100742.25;4962325;28;19933;-82
2023/05/10 05:10:28;;;;;;;;;;;;;;;18.52;70.28;100743.41;4965782;28;20301;-82
2023/05/10 05:12:54;;;;;;;;;;;;;;;18.17;71.14;100735.03;4966664;28;19922;-82
2023/05/10 05:15:23;;;;;;;;;;;;;;;17.64;72.23;100681.25;4963741;28;19948;-83
2023/05/10 05:17:50;;;;;;;;;;;;;;;18.03;72.76;100733.97;4967509;28;20398;-81
2023/05/10 05:20:18;;;;;;;;;;;;;;;17.99;73.11;100738.06;4956412;28;20236;-81
2023/05/10 05:22:45;;;;;;;;;;;;;;;18.04;72.84;100738.34;4949477;28;19933;-82
2023/05/10 05:25:12;;;;;;;;;;;;;;;18.19;72.36;100733.00;4964424;28;19930;-81
2023/05/10 05:27:39;;;;;;;;;;;;;;;18.21;72.74;100739.03;4947804;28;19922;-82
2023/05/10 05:30:06;;;;;;;;;;;;;;;18.16;72.64;100736.06;4954496;28;19969;-80
2023/05/10 05:32:33;;;;;;;;;;;;;;;18.07;73.07;100735.31;4966093;28;20215;-83
2023/05/10 05:35:02;;;;;;;;;;;;;;;18.21;73.66;100735.53;4964119;28;20180;-80
2023/05/10 05:37:29;;;;;;;;;;;;;;;18.35;72.93;100732.84;4974611;28;20055;-81
2023/05/10 05:39:57;;;;;;;;;;;;;;;18.33;73.21;100734.06;4981696;28;20013;-82
2023/05/10 05:42:27;;;;;;;;;;;;;;;18.44;72.62;100730.88;4966569;28;19922;-82
2023/05/10 05:44:54;;;;;;;;;;;;;;;18.45;72.75;100742.50;4929587;28;20364;-83
2023/05/10 05:47:21;;;;;;;;;;;;;;;18.48;71.58;100736.75;4951448;28;20435;-81
2023/05/10 05:49:48;;;;;;;;;;;;;;;18.58;72.13;100737.31;4958711;28;19945;-82
2023/05/10 05:52:15;;;;;;;;;;;;;;;18.46;71.40;100738.78;4940424;28;19926;-81
2023/05/10 05:54:43;;;;;;;;;;;;;;;18.28;71.69;100742.66;4942678;28;19929;-81
2023/05/10 05:57:10;;;;;;;;;;;;;;;18.39;72.92;100737.84;4942694;28;19926;-81
2023/05/10 05:59:41;;;;;;;;;;;;;;;18.56;72.06;100728.56;4945889;28;20562;-84
2023/05/10 06:02:09;;;;;;;;;;;;;;;18.27;72.26;100678.34;4963657;28;19981;-82
2023/05/10 06:04:36;;;;;;;;;;;;;;;18.37;71.45;100681.59;4974926;28;19922;-83
2023/05/10 06:07:03;;;;;;;;;;;;;;;18.53;70.99;100740.53;4978618;28;19929;-81
2023/05/10 06:09:30;;;;;;;;;;;;;;;18.46;72.18;100734.22;4956347;28;19922;-81
2023/05/10 06:11:57;;;;;;;;;;;;;;;18.43;73.08;100740.00;4941512;28;19938;-81
2023/05/10 06:14:23;;;;;;;;;;;;;;;18.30;72.61;100734.41;4961076;28;20194;-81
2023/05/10 06:16:50;;;;;;;;;;;;;;;18.44;72.94;100740.81;4957190;28;20277;-82
2023/05/10 06:19:17;;;;;;;;;;;;;;;18.51;71.97;100736.38;4941029;28;20178;-82
2023/05/10 06:21:43;;;;;;;;;;;;;;;18.70;71.36;100745.75;4919384;28;20001;-82
2023/05/10 06:24:12;;;;;;;;;;;;;;;18.42;72.01;100738.31;4911746;28;20318;-83
2023/05/10 06:26:39;;;;;;;;;;;;;;;18.55;72.62;100738.50;4942686;28;20007;-81
2023/05/10 06:29:06;;;;;;;;;;;;;;;18.48;72.41;100740.25;4939050;28;20308;-84
2023/05/10 06:31:32;;;;;;;;;;;;;;;18.55;72.30;100735.81;4956216;28;20442;-82
2023/05/10 06:33:59;;;;;;;;;;;;;;;18.61;72.98;100741.47;4970384;28;19921;-83
2023/05/10 06:36:27;;;;;;;;;;;;;;;18.58;72.37;100740.81;4942877;28;20149;-84
2023/05/10 06:38:54;;;;;;;;;;;;;;;18.52;72.06;100741.56;4972959;28;19964;-84
2023/05/10 06:41:24;;;;;;;;;;;;;;;18.84;71.50;100742.25;4976374;28;20312;-82
2023/05/10 06:43:51;;;;;;;;;;;;;;;18.60;71.31;100732.56;4967488;28;20292;-82
2023/05/10 06:46:17;;;;;;;;;;;;;;;18.70;71.16;100733.13;4939559;28;19922;-83
2023/05/10 06:48:44;;;;;;;;;;;;;;;18.76;71.83;100731.56;4963061;28;19979;-83
2023/05/10 06:51:13;;;;;;;;;;;;;;;18.47;71.50;100681.31;4942626;28;20404;-84
2023/05/10 06:53:40;;;;;;;;;;;;;;;18.79;71.57;100732.03;4939255;28;19922;-84
2023/05/10 06:56:07;;;;;;;;;;;;;;;18.94;70.92;100731.19;4905105;28;19932;-84
2023/05/10 06:58:37;;;;;;;;;;;;;;;18.69;70.70;100674.13;4924939;28;19922;-84
2023/05/10 07:01:08;;;;;;;;;;;;;;;18.73;70.53;100724.66;4913077;28;19925;-83
2023/05/10 07:03:38;;;;;;;;;;;;;;;18.78;71.28;100726.84;4949664;28;19929;-84
2023/05/10 07:06:09;;;;;;;;;;;;;;;18.91;70.85;100716.25;4903455;28;20203;-84
2023/05/10 07:08:59;;;;;;;;;;;;;;;19.06;70.80;100729.69;4941946;28;19933;-81
2023/05/10 07:11:25;;;;;;;;;;;;;;;19.23;70.14;100724.91;4940282;28;19932;-82
2023/05/10 07:13:52;;;;;;;;;;;;;;;19.15;69.43;100733.06;4956372;28;19930;-82
2023/05/10 07:16:18;;;;;;;;;;;;;;;19.12;70.04;100733.47;4947546;28;19922;-82
2023/05/10 07:18:45;;;;;;;;;;;;;;;18.91;70.61;100735.09;4939920;28;19922;-81
2023/05/10 07:21:11;;;;;;;;;;;;;;;19.10;69.74;100732.81;4942023;28;20025;-82
2023/05/10 07:23:38;;;;;;;;;;;;;;;19.10;70.22;100730.97;4958896;28;19921;-82
2023/05/10 07:26:05;;;;;;;;;;;;;;;19.10;70.27;100727.44;4983496;28;19929;-81
2023/05/10 07:28:31;;;;;;;;;;;;;;;18.85;70.54;100721.53;4967401;28;19933;-81
2023/05/10 07:30:58;;;;;;;;;;;;;;;18.78;70.97;100726.84;4947445;28;20281;-82
2023/05/10 07:33:25;;;;;;;;;;;;;;;18.79;71.27;100731.22;4971341;28;19925;-82
2023/05/10 07:35:51;;;;;;;;;;;;;;;18.84;71.20;100734.16;4959376;28;20201;-82
2023/05/10 07:38:21;;;;;;;;;;;;;;;18.97;70.46;100731.63;4982904;28;19926;-84
2023/05/10 07:40:47;;;;;;;;;;;;;;;18.93;70.52;100734.88;4972435;28;20233;-82
2023/05/10 07:43:14;;;;;;;;;;;;;;;18.92;70.93;100731.38;4971145;28;19946;-84
2023/05/10 07:45:42;;;;;;;;;;;;;;;18.19;69.60;100638.16;4940247;28;20456;-85
2023/05/10 07:48:09;;;;;;;;;;;;;;;18.89;70.96;100729.06;4956982;28;20380;-79
2023/05/10 07:50:35;;;;;;;;;;;;;;;19.16;70.13;100724.00;4941174;28;20277;-81
2023/05/10 07:53:02;;;;;;;;;;;;;;;19.22;70.08;100728.59;4928064;28;20376;-82
2023/05/10 07:55:30;;;;;;;;;;;;;;;19.22;69.02;100725.91;4947823;28;19922;-81
2023/05/10 07:57:57;;;;;;;;;;;;;;;19.29;69.63;100721.44;4956154;28;19922;-81
2023/05/10 08:00:24;;;;;;;;;;;;;;;19.09;69.97;100731.16;4956129;28;19926;-84
2023/05/10 08:02:50;;;;;;;;;;;;;;;19.05;70.09;100724.47;4968818;28;20423;-83
2023/05/10 08:05:19;;;;;;;;;;;;;;;18.93;69.74;100729.50;4964317;28;19925;-82
2023/05/10 08:07:49;;;;;;;;;;;;;;;18.61;70.22;100668.88;4979797;28;19932;-83
2023/05/10 08:10:16;;;;;;;;;;;;;;;18.86;68.37;100724.06;4959315;28;20251;-83
2023/05/10 08:12:43;;;;;;;;;;;;;;;18.80;69.32;100724.78;4981273;28;19922;-82
2023/05/10 08:15:10;;;;;;;;;;;;;;;18.56;70.68;100732.09;4947658;28;19922;-82
2023/05/10 08:17:36;;;;;;;;;;;;;;;18.55;71.38;100730.44;4954856;28;19930;-83
2023/05/10 08:20:05;;;;;;;;;;;;;;;18.44;70.85;100724.69;4945681;28;20287;-81
2023/05/10 08:22:34;;;;;;;;;;;;;;;17.66;71.33;100636.28;4950179;28;20521;-87
2023/05/10 08:25:01;;;;;;;;;;;;;;;18.44;71.91;100719.31;4961250;28;20365;-82
2023/05/10 08:27:27;;;;;;;;;;;;;;;18.33;71.70;100728.69;4965272;28;20016;-83
2023/05/10 08:29:54;;;;;;;;;;;;;;;18.12;71.72;100732.91;4950613;28;19925;-81
2023/05/10 08:32:22;;;;;;;;;;;;;;;18.18;72.45;100741.25;4957107;28;19965;-80
2023/05/10 08:34:48;;;;;;;;;;;;;;;18.14;71.85;100736.25;4977021;28;19932;-84
2023/05/10 08:37:15;;;;;;;;;;;;;;;17.99;72.30;100742.63;4987462;28;19922;-81
2023/05/10 08:39:42;;;;;;;;;;;;;;;17.87;73.10;100751.09;4974127;28;20041;-82
2023/05/10 08:42:09;;;;;;;;;;;;;;;17.86;72.60;100748.56;4956792;28;19926;-82
2023/05/10 08:44:36;;;;;;;;;;;;;;;17.94;73.03;100752.03;4958792;28;20016;-81
2023/05/10 08:47:10;;;;;;;;;;;;;;;18.11;73.71;100744.66;4946156;28;19922;-80
2023/05/10 08:49:37;;;;;;;;;;;;;;;18.25;72.50;100743.00;4959520;28;19977;-81
2023/05/10 08:52:05;;;;;;;;;;;;;;;18.20;72.63;100745.41;4966701;28;19929;-81
2023/05/10 08:54:33;;;;;;;;;;;;;;;18.33;72.78;100752.88;4960360;28;19928;-85
2023/05/10 08:57:00;;;;;;;;;;;;;;;18.32;72.29;100753.88;4946748;28;19922;-82
2023/05/10 08:59:27;;;;;;;;;;;;;;;17.99;72.95;100751.50;4961774;28;19928;-83
2023/05/10 09:01:55;;;;;;;;;;;;;;;17.76;73.47;100694.25;4958913;28;19922;-83
2023/05/10 09:04:22;;;;;;;;;;;;;;;17.82;73.34;100755.34;4983599;28;20458;-83
2023/05/10 09:06:49;;;;;;;;;;;;;;;18.11;74.31;100747.34;4972141;28;20004;-84
2023/05/10 09:09:18;;;;;;;;;;;;;;;17.97;74.36;100761.59;4966869;28;19925;-85
2023/05/10 09:11:46;;;;;;;;;;;;;;;17.82;74.30;100755.34;4942142;28;19971;-84
2023/05/10 09:14:15;;;;;;;;;;;;;;;18.05;73.90;100744.56;4928067;28;20384;-82
2023/05/10 09:16:41;;;;;;;;;;;;;;;18.11;73.90;100751.91;4963534;28;20196;-80
2023/05/10 09:19:09;;;;;;;;;;;;;;;18.31;73.92;100752.22;4962934;28;19922;-84
2023/05/10 09:21:38;;;;;;;;;;;;;;;18.26;73.80;100755.44;4962411;28;19921;-83
2023/05/10 09:24:06;;;;;;;;;;;;;;;18.49;73.24;100749.16;4958039;28;19976;-83
2023/05/10 09:26:36;;;;;;;;;;;;;;;18.50;73.23;100750.84;4962183;28;20169;-81
2023/05/10 09:29:03;;;;;;;;;;;;;;;18.48;71.95;100745.63;4973114;28;19948;-84
2023/05/10 09:31:48;;;;;;;;;;;;;;;18.67;72.65;100740.75;4947533;28;20005;-82
2023/05/10 09:34:18;;;;;;;;;;;;;;;18.46;72.74;100744.97;4968495;28;19925;-82
2023/05/10 09:36:52;;;;;;;;;;;;;;;18.21;73.44;100751.66;4966255;28;20254;-82
2023/05/10 09:39:19;;;;;;;;;;;;;;;18.03;73.98;100747.41;4974465;28;19944;-85
2023/05/10 09:41:48;;;;;;;;;;;;;;;18.11;74.04;100747.34;4977072;28;19921;-80
2023/05/10 09:44:18;;;;;;;;;;;;;;;18.23;72.78;100709.28;4958665;28;19933;-83
2023/05/10 09:46:50;;;;;;;;;;;;;;;18.42;72.83;100749.06;4942007;28;20012;-82
2023/05/10 09:49:20;;;;;;;;;;;;;;;18.26;72.86;100747.38;4973254;28;20287;-82
2023/05/10 09:51:47;;;;;;;;;;;;;;;18.18;73.19;100746.63;4952914;28;19921;-83
2023/05/10 09:54:16;;;;;;;;;;;;;;;18.25;73.37;100750.25;4954325;28;20303;-82
2023/05/10 09:56:45;;;;;;;;;;;;;;;18.26;73.13;100749.25;4934496;28;20320;-82
2023/05/10 09:59:12;;;;;;;;;;;;;;;18.32;72.84;100760.06;4954917;28;19922;-83
2023/05/10 10:01:39;;;;;;;;;;;;;;;18.53;72.41;100767.41;4973429;28;19932;-82
2023/05/10 10:04:07;;;;;;;;;;;;;;;18.57;71.23;100755.28;4968660;28;20359;-82
2023/05/10 10:06:37;;;;;;;;;;;;;;;18.57;71.86;100749.09;4967854;28;19932;-82
2023/05/10 10:09:06;;;;;;;;;;;;;;;18.57;71.68;100752.59;4963377;28;19926;-82
2023/05/10 10:11:34;;;;;;;;;;;;;;;18.54;71.51;100752.13;4948438;28;19937;-83
2023/05/10 10:14:01;;;;;;;;;;;;;;;18.33;71.02;100745.63;4965903;28;19992;-84
2023/05/10 10:16:31;;;;;;;;;;;;;;;18.42;70.26;100749.06;4974845;28;20399;-83
2023/05/10 10:18:58;;;;;;;;;;;;;;;18.04;71.38;100743.72;4968304;28;19925;-83
2023/05/10 10:21:26;;;;;;;;;;;;;;;17.99;72.39;100748.00;4964824;28;19921;-82
2023/05/10 10:23:53;;;;;;;;;;;;;;;17.79;72.40;100744.91;4968085;28;20146;-84
2023/05/10 10:26:21;;;;;;;;;;;;;;;17.96;73.60;100737.59;4962982;28;20008;-82
2023/05/10 10:28:56;;;;;;;;;;;;;;;18.12;72.46;100740.97;4968295;28;19996;-82
2023/05/10 10:31:32;;;;;;;;;;;;;;;17.99;72.41;100745.31;4950739;28;20769;-83
2023/05/10 10:33:59;;;;;;;;;;;;;;;17.79;71.53;100744.91;4966034;28;20478;-82
2023/05/10 10:36:26;;;;;;;;;;;;;;;17.55;73.44;100741.41;4952453;28;20216;-82
2023/05/10 10:39:00;;;;;;;;;;;;;;;17.43;74.35;100742.84;4949679;28;19921;-83
2023/05/10 10:41:30;;;;;;;;;;;;;;;17.54;74.10;100741.59;4947843;28;20299;-81
2023/05/10 10:44:34;;;;;;;;;;;;;;;17.40;74.26;100740.50;4956227;28;19922;-81
2023/05/10 10:47:02;;;;;;;;;;;;;;;17.04;75.38;100749.09;4902902;29;19962;-84
2023/05/10 10:49:36;;;;;;;;;;;;;;;17.07;75.98;100744.22;4948893;28;20364;-83
2023/05/10 10:52:29;;;;;;;;;;;;;;;17.41;76.62;100745.69;4929908;28;19937;-85
2023/05/10 10:55:01;;;;;;;;;;;;;;;17.33;73.62;100742.22;4966351;28;19931;-82
2023/05/10 10:57:30;;;;;;;;;;;;;;;17.22;74.69;100746.97;4978471;28;20287;-83
2023/05/10 11:00:15;;;;;;;;;;;;;;;17.04;74.82;100743.75;4970111;28;19975;-83
2023/05/10 11:02:46;;;;;;;;;;;;;;;16.97;75.42;100748.13;4968983;28;19983;-84
2023/05/10 11:05:24;;;;;;;;;;;;;;;16.67;76.02;100746.03;4958049;28;20016;-87
2023/05/10 11:07:55;;;;;;;;;;;;;;;16.50;76.79;100746.22;4959405;28;20403;-81
2023/05/10 11:10:25;;;;;;;;;;;;;;;16.69;77.53;100750.38;4957796;28;19988;-86
2023/05/10 11:13:02;;;;;;;;;;;;;;;16.61;76.96;100753.91;4939653;28;19989;-83
2023/05/10 11:15:35;;;;;;;;;;;;;;;16.43;77.35;100759.47;4952786;28;20177;-83
2023/05/10 11:18:19;;;;;;;;;;;;;;;16.35;77.41;100757.66;4931452;28;19922;-84
2023/05/10 11:20:59;;;;;;;;;;;;;;;16.10;78.69;100762.22;4946485;28;20024;-84
2023/05/10 11:23:30;;;;;;;;;;;;;;;15.99;79.59;100757.19;4961916;28;19929;-83
2023/05/10 11:25:56;;;;;;;;;;;;;;;15.89;79.51;100769.91;4971039;28;19946;-85
2023/05/10 11:28:23;;;;;;;;;;;;;;;15.77;80.89;100772.06;4977362;28;19930;-83
2023/05/10 11:30:51;;;;;;;;;;;;;;;15.72;80.96;100769.91;4969806;28;20194;-83
2023/05/10 11:33:19;;;;;;;;;;;;;;;15.60;80.73;100771.19;4982134;28;19925;-83
2023/05/10 11:35:50;;;;;;;;;;;;;;;15.48;81.29;100777.84;4975467;28;19921;-83
2023/05/10 11:38:17;;;;;;;;;;;;;;;15.46;81.90;100777.19;4968462;28;20141;-82
2023/05/10 11:40:45;;;;;;;;;;;;;;;15.38;82.10;100783.34;4970097;28;19925;-85
2023/05/10 11:43:12;;;;;;;;;;;;;;;15.27;82.18;100783.69;4974590;28;19922;-84
2023/05/10 11:45:39;;;;;;;;;;;;;;;15.13;82.60;100777.94;4960126;28;19929;-82
2023/05/10 11:48:07;;;;;;;;;;;;;;;15.12;83.32;100778.09;4965796;28;20360;-84
2023/05/10 11:50:34;;;;;;;;;;;;;;;15.16;83.22;100782.94;4983945;28;20041;-82
2023/05/10 11:53:00;;;;;;;;;;;;;;;15.08;83.63;100777.59;4980654;28;20004;-83
2023/05/10 11:55:27;;;;;;;;;;;;;;;15.09;84.01;100779.25;4998236;28;20346;-84
2023/05/10 11:58:05;;;;;;;;;;;;;;;15.13;83.89;100779.78;4969952;28;19922;-82
2023/05/10 12:00:36;;;;;;;;;;;;;;;15.20;83.38;100782.66;4948662;28;19926;-82
2023/05/10 12:03:04;;;;;;;;;;;;;;;15.20;83.18;100785.31;4961822;28;20004;-85
2023/05/10 12:05:33;;;;;;;;;;;;;;;14.86;82.55;100724.72;4970599;28;19921;-84
2023/05/10 12:08:13;;;;;;;;;;;;;;;15.22;83.07;100781.47;4964018;28;19922;-82
2023/05/10 12:10:39;;;;;;;;;;;;;;;15.25;82.45;100789.16;4958916;28;20407;-83
2023/05/10 12:13:10;;;;;;;;;;;;;;;15.27;82.83;100783.69;4960990;28;20074;-81
2023/05/10 12:15:38;;;;;;;;;;;;;;;15.31;82.19;100785.00;4954279;28;19926;-81
2023/05/10 12:18:14;;;;;;;;;;;;;;;15.28;82.26;100785.34;4961528;28;20730;-83
2023/05/10 12:20:44;;;;;;;;;;;;;;;15.17;81.23;100783.81;4946641;28;20418;-84
2023/05/10 12:23:27;;;;;;;;;;;;;;;15.04;82.76;100786.09;4951002;28;19973;-83
2023/05/10 12:26:01;;;;;;;;;;;;;;;15.00;83.32;100782.91;4953210;28;19925;-82
2023/05/10 12:28:30;;;;;;;;;;;;;;;15.02;83.11;100777.38;4951469;28;20137;-82
2023/05/10 12:30:57;;;;;;;;;;;;;;;14.99;82.94;100773.19;4950653;28;19925;-83
2023/05/10 12:33:24;;;;;;;;;;;;;;;14.92;83.09;100777.50;4971330;28;20291;-83
2023/05/10 12:35:53;;;;;;;;;;;;;;;14.81;84.41;100783.16;4971429;28;19925;-82
2023/05/10 12:38:49;;;;;;;;;;;;;;;14.86;84.24;100778.16;4966380;28;20270;-83
2023/05/10 12:41:29;;;;;;;;;;;;;;;14.50;83.84;100719.50;4975624;28;19922;-83
2023/05/10 12:43:56;;;;;;;;;;;;;;;14.97;84.66;100783.22;4957255;28;20451;-80
2023/05/10 12:46:25;;;;;;;;;;;;;;;14.92;83.62;100780.19;4949067;28;20379;-84
2023/05/10 12:48:55;;;;;;;;;;;;;;;14.96;84.04;100786.88;4958168;28;20044;-84